BVLO2: Caney River, Bartlesville, OK

Data processed at Sat Aug 19 2017 23:01


All information presented herein is the property of the government of the United States of America and may be revised or deleted at any time without prior notice.
Dissemination of this information without the expressed written consent of the Public Affairs Office, Tulsa District U.S. Army Corps of Engineers is strictly prohibited.
These data are gathered electronically and, as presented, have not undergone any form of quality control. These data are not guaranteed to be valid or correct.
Go to home page.
Go to station list.

Upstream stations:

Downstream station:
Previous Day
Next Day
Current Day
    
SHEF ID:       BVLO2     Caney River above Coon Creek at
STATION TYPE:  

               PRECIP     STAGE  RIV-FLOW  BAT-LOAD
                   in        ft       cfs      volt
              Ccp-Rev   Ccp-Rev   Ccp-Rev   Ccp-Rev
(US/Central)
08/19 00:00      0.00      4.10       829     12.65
08/19 01:00      0.00      4.03       745     12.65
08/19 02:00      0.00      3.97       675     12.65
08/19 03:00      0.00      3.91       607     12.65
08/19 04:00      0.00      3.85       544     12.65
08/19 05:00      0.00      3.81       505     12.65
08/19 06:00      0.00      3.76       456     12.65
08/19 07:00      0.00      3.73       429     12.65
08/19 08:00      0.00      3.70       402     12.65
08/19 09:00      0.00      3.67       377     12.89
08/19 10:00      0.00      3.65       360     13.21
08/19 11:00      0.00      3.64       352     13.60
08/19 12:00      0.00      3.63       344     13.44
08/19 13:00      0.00      3.62       336     13.44
08/19 14:00      0.00      3.61       329     13.44
08/19 15:00      0.00      3.60       321     13.44
08/19 16:00      0.00      3.60       321     13.21
08/19 17:00      0.00      3.59       313     12.89
08/19 18:00      0.00      3.59       313     12.89
08/19 19:00      0.00      3.58       305     12.81
08/19 20:00      0.00      3.58       305     12.73
08/19 21:00      0.00      3.58       305     12.73
08/19 22:00      0.00      3.58       305     12.73
08/19 23:00      ----      ----      ----      ----